sensor_id;sensor_type;location;lat;lon;timestamp;P1;durP1;ratioP1;P2;durP2;ratioP2
78555;SDS011;67851;51.354;7.744;2023-04-24T00:00:53;1.40;;;0.90;;
78555;SDS011;67851;51.354;7.744;2023-04-24T00:03:22;4.20;;;0.80;;
78555;SDS011;67851;51.354;7.744;2023-04-24T00:05:48;0.77;;;0.73;;
78555;SDS011;67851;51.354;7.744;2023-04-24T00:08:14;0.70;;;0.60;;
78555;SDS011;67851;51.354;7.744;2023-04-24T00:10:39;0.85;;;0.73;;
78555;SDS011;67851;51.354;7.744;2023-04-24T00:13:05;2.45;;;0.70;;
78555;SDS011;67851;51.354;7.744;2023-04-24T00:15:30;6.05;;;1.08;;
78555;SDS011;67851;51.354;7.744;2023-04-24T00:17:56;2.50;;;0.60;;
78555;SDS011;67851;51.354;7.744;2023-04-24T00:20:22;0.70;;;0.70;;
78555;SDS011;67851;51.354;7.744;2023-04-24T00:22:47;1.40;;;0.60;;
78555;SDS011;67851;51.354;7.744;2023-04-24T00:25:13;2.20;;;0.80;;
78555;SDS011;67851;51.354;7.744;2023-04-24T00:27:38;7.63;;;0.70;;
78555;SDS011;67851;51.354;7.744;2023-04-24T00:30:04;1.52;;;0.70;;
78555;SDS011;67851;51.354;7.744;2023-04-24T00:32:30;0.85;;;0.50;;
78555;SDS011;67851;51.354;7.744;2023-04-24T00:34:55;1.17;;;0.70;;
78555;SDS011;67851;51.354;7.744;2023-04-24T00:37:21;2.38;;;0.70;;
78555;SDS011;67851;51.354;7.744;2023-04-24T00:39:46;2.20;;;0.75;;
78555;SDS011;67851;51.354;7.744;2023-04-24T00:42:12;0.65;;;0.65;;
78555;SDS011;67851;51.354;7.744;2023-04-24T00:44:37;2.22;;;0.80;;
78555;SDS011;67851;51.354;7.744;2023-04-24T00:47:03;1.10;;;0.70;;
78555;SDS011;67851;51.354;7.744;2023-04-24T00:49:29;2.35;;;0.93;;
78555;SDS011;67851;51.354;7.744;2023-04-24T00:51:54;1.15;;;0.80;;
78555;SDS011;67851;51.354;7.744;2023-04-24T00:54:21;2.42;;;0.90;;
78555;SDS011;67851;51.354;7.744;2023-04-24T00:56:49;0.82;;;0.70;;
78555;SDS011;67851;51.354;7.744;2023-04-24T00:59:16;1.38;;;0.90;;
78555;SDS011;67851;51.354;7.744;2023-04-24T01:01:43;0.70;;;0.63;;
78555;SDS011;67851;51.354;7.744;2023-04-24T01:04:09;1.02;;;0.80;;
78555;SDS011;67851;51.354;7.744;2023-04-24T01:06:36;2.42;;;1.10;;
78555;SDS011;67851;51.354;7.744;2023-04-24T01:09:04;1.33;;;1.10;;
78555;SDS011;67851;51.354;7.744;2023-04-24T01:11:30;4.03;;;1.15;;
78555;SDS011;67851;51.354;7.744;2023-04-24T01:13:55;1.10;;;1.00;;
78555;SDS011;67851;51.354;7.744;2023-04-24T01:16:22;2.08;;;1.10;;
78555;SDS011;67851;51.354;7.744;2023-04-24T01:18:47;2.08;;;1.00;;
78555;SDS011;67851;51.354;7.744;2023-04-24T01:21:14;1.55;;;1.20;;
78555;SDS011;67851;51.354;7.744;2023-04-24T01:23:44;1.25;;;1.10;;
78555;SDS011;67851;51.354;7.744;2023-04-24T01:26:10;6.63;;;1.23;;
78555;SDS011;67851;51.354;7.744;2023-04-24T01:28:35;1.80;;;1.55;;
78555;SDS011;67851;51.354;7.744;2023-04-24T01:31:04;1.70;;;1.30;;
78555;SDS011;67851;51.354;7.744;2023-04-24T01:33:30;4.68;;;1.50;;
78555;SDS011;67851;51.354;7.744;2023-04-24T01:35:56;2.35;;;1.20;;
78555;SDS011;67851;51.354;7.744;2023-04-24T01:38:21;6.50;;;1.95;;
78555;SDS011;67851;51.354;7.744;2023-04-24T01:40:47;2.40;;;1.50;;
78555;SDS011;67851;51.354;7.744;2023-04-24T01:43:12;1.83;;;1.40;;
78555;SDS011;67851;51.354;7.744;2023-04-24T01:45:38;6.07;;;1.20;;
78555;SDS011;67851;51.354;7.744;2023-04-24T01:48:04;2.20;;;1.30;;
78555;SDS011;67851;51.354;7.744;2023-04-24T01:50:30;1.35;;;1.13;;
78555;SDS011;67851;51.354;7.744;2023-04-24T01:52:55;1.52;;;1.35;;
78555;SDS011;67851;51.354;7.744;2023-04-24T01:55:21;2.25;;;1.40;;
78555;SDS011;67851;51.354;7.744;2023-04-24T01:57:47;2.05;;;1.23;;
78555;SDS011;67851;51.354;7.744;2023-04-24T02:00:12;1.75;;;1.55;;
78555;SDS011;67851;51.354;7.744;2023-04-24T02:02:39;1.70;;;1.45;;
78555;SDS011;67851;51.354;7.744;2023-04-24T02:05:06;3.70;;;1.50;;
78555;SDS011;67851;51.354;7.744;2023-04-24T02:07:35;1.50;;;1.17;;
78555;SDS011;67851;51.354;7.744;2023-04-24T02:10:00;1.80;;;1.60;;
78555;SDS011;67851;51.354;7.744;2023-04-24T02:12:26;4.28;;;2.13;;
78555;SDS011;67851;51.354;7.744;2023-04-24T02:14:51;3.20;;;2.03;;
78555;SDS011;67851;51.354;7.744;2023-04-24T02:17:17;5.32;;;1.88;;
78555;SDS011;67851;51.354;7.744;2023-04-24T02:19:44;2.30;;;1.80;;
78555;SDS011;67851;51.354;7.744;2023-04-24T02:22:10;3.67;;;1.92;;
78555;SDS011;67851;51.354;7.744;2023-04-24T02:24:36;3.05;;;2.08;;
78555;SDS011;67851;51.354;7.744;2023-04-24T02:27:02;2.97;;;2.00;;
78555;SDS011;67851;51.354;7.744;2023-04-24T02:29:28;3.83;;;1.88;;
78555;SDS011;67851;51.354;7.744;2023-04-24T02:31:54;9.15;;;2.50;;
78555;SDS011;67851;51.354;7.744;2023-04-24T02:34:19;2.55;;;2.20;;
78555;SDS011;67851;51.354;7.744;2023-04-24T02:36:45;4.18;;;2.50;;
78555;SDS011;67851;51.354;7.744;2023-04-24T02:39:10;5.45;;;1.98;;
78555;SDS011;67851;51.354;7.744;2023-04-24T02:41:37;3.60;;;2.10;;
78555;SDS011;67851;51.354;7.744;2023-04-24T02:44:03;3.15;;;2.25;;
78555;SDS011;67851;51.354;7.744;2023-04-24T02:46:28;3.22;;;1.58;;
78555;SDS011;67851;51.354;7.744;2023-04-24T02:48:55;2.50;;;2.03;;
78555;SDS011;67851;51.354;7.744;2023-04-24T02:51:20;4.45;;;2.50;;
78555;SDS011;67851;51.354;7.744;2023-04-24T02:53:46;9.25;;;2.75;;
78555;SDS011;67851;51.354;7.744;2023-04-24T02:56:12;2.58;;;2.17;;
78555;SDS011;67851;51.354;7.744;2023-04-24T02:58:38;3.58;;;2.35;;
78555;SDS011;67851;51.354;7.744;2023-04-24T03:01:04;7.60;;;2.50;;
78555;SDS011;67851;51.354;7.744;2023-04-24T03:03:30;4.50;;;2.35;;
78555;SDS011;67851;51.354;7.744;2023-04-24T03:05:55;5.40;;;2.30;;
78555;SDS011;67851;51.354;7.744;2023-04-24T03:08:22;7.72;;;2.63;;
78555;SDS011;67851;51.354;7.744;2023-04-24T03:10:48;2.70;;;2.22;;
78555;SDS011;67851;51.354;7.744;2023-04-24T03:13:14;4.80;;;2.70;;
78555;SDS011;67851;51.354;7.744;2023-04-24T03:15:40;4.85;;;2.97;;
78555;SDS011;67851;51.354;7.744;2023-04-24T03:18:06;3.55;;;2.63;;
78555;SDS011;67851;51.354;7.744;2023-04-24T03:20:33;4.70;;;2.78;;
78555;SDS011;67851;51.354;7.744;2023-04-24T03:22:58;5.82;;;2.60;;
78555;SDS011;67851;51.354;7.744;2023-04-24T03:25:24;6.50;;;2.45;;
78555;SDS011;67851;51.354;7.744;2023-04-24T03:27:51;5.10;;;3.22;;
78555;SDS011;67851;51.354;7.744;2023-04-24T03:30:30;5.43;;;2.60;;
78555;SDS011;67851;51.354;7.744;2023-04-24T03:32:58;4.32;;;3.10;;
78555;SDS011;67851;51.354;7.744;2023-04-24T03:35:27;6.10;;;3.20;;
78555;SDS011;67851;51.354;7.744;2023-04-24T03:37:54;4.03;;;3.22;;
78555;SDS011;67851;51.354;7.744;2023-04-24T03:40:52;5.18;;;3.75;;
78555;SDS011;67851;51.354;7.744;2023-04-24T03:43:38;5.35;;;4.38;;
78555;SDS011;67851;51.354;7.744;2023-04-24T03:46:05;7.60;;;4.70;;
78555;SDS011;67851;51.354;7.744;2023-04-24T03:48:34;8.30;;;5.43;;
78555;SDS011;67851;51.354;7.744;2023-04-24T03:51:01;9.10;;;5.38;;
78555;SDS011;67851;51.354;7.744;2023-04-24T03:53:28;8.48;;;6.00;;
78555;SDS011;67851;51.354;7.744;2023-04-24T03:55:55;9.13;;;6.32;;
78555;SDS011;67851;51.354;7.744;2023-04-24T03:58:20;10.75;;;6.30;;
78555;SDS011;67851;51.354;7.744;2023-04-24T04:00:46;11.50;;;7.18;;
78555;SDS011;67851;51.354;7.744;2023-04-24T04:03:35;13.43;;;8.05;;
78555;SDS011;67851;51.354;7.744;2023-04-24T04:06:01;10.40;;;8.00;;
78555;SDS011;67851;51.354;7.744;2023-04-24T04:08:27;15.25;;;9.82;;
78555;SDS011;67851;51.354;7.744;2023-04-24T04:10:52;16.50;;;9.93;;
78555;SDS011;67851;51.354;7.744;2023-04-24T04:13:18;16.45;;;9.45;;
78555;SDS011;67851;51.354;7.744;2023-04-24T04:15:44;18.33;;;12.20;;
78555;SDS011;67851;51.354;7.744;2023-04-24T04:18:09;14.20;;;9.77;;
78555;SDS011;67851;51.354;7.744;2023-04-24T04:20:36;17.35;;;11.32;;
78555;SDS011;67851;51.354;7.744;2023-04-24T04:23:01;15.73;;;10.05;;
78555;SDS011;67851;51.354;7.744;2023-04-24T04:25:47;15.95;;;10.38;;
78555;SDS011;67851;51.354;7.744;2023-04-24T04:28:15;18.95;;;10.10;;
78555;SDS011;67851;51.354;7.744;2023-04-24T04:30:41;14.23;;;9.90;;
78555;SDS011;67851;51.354;7.744;2023-04-24T04:33:07;17.88;;;9.73;;
78555;SDS011;67851;51.354;7.744;2023-04-24T04:35:34;17.75;;;10.65;;
78555;SDS011;67851;51.354;7.744;2023-04-24T04:38:00;18.20;;;7.90;;
78555;SDS011;67851;51.354;7.744;2023-04-24T04:43:10;17.95;;;11.23;;
78555;SDS011;67851;51.354;7.744;2023-04-24T04:45:48;17.83;;;11.70;;
78555;SDS011;67851;51.354;7.744;2023-04-24T04:48:34;16.58;;;10.63;;
78555;SDS011;67851;51.354;7.744;2023-04-24T04:51:01;22.30;;;11.00;;
78555;SDS011;67851;51.354;7.744;2023-04-24T04:53:27;18.33;;;10.30;;
78555;SDS011;67851;51.354;7.744;2023-04-24T04:55:53;15.82;;;9.60;;
78555;SDS011;67851;51.354;7.744;2023-04-24T04:58:21;18.35;;;10.52;;
78555;SDS011;67851;51.354;7.744;2023-04-24T05:00:52;14.93;;;10.40;;
78555;SDS011;67851;51.354;7.744;2023-04-24T05:03:24;14.48;;;9.60;;
78555;SDS011;67851;51.354;7.744;2023-04-24T05:05:57;13.75;;;9.07;;
78555;SDS011;67851;51.354;7.744;2023-04-24T05:08:23;13.73;;;9.77;;
78555;SDS011;67851;51.354;7.744;2023-04-24T05:10:49;13.68;;;9.88;;
78555;SDS011;67851;51.354;7.744;2023-04-24T05:13:15;15.75;;;9.35;;
78555;SDS011;67851;51.354;7.744;2023-04-24T05:15:40;14.50;;;9.60;;
78555;SDS011;67851;51.354;7.744;2023-04-24T05:18:06;18.88;;;9.93;;
78555;SDS011;67851;51.354;7.744;2023-04-24T05:20:32;15.00;;;9.90;;
78555;SDS011;67851;51.354;7.744;2023-04-24T05:22:58;13.90;;;9.85;;
78555;SDS011;67851;51.354;7.744;2023-04-24T05:25:24;11.98;;;8.38;;
78555;SDS011;67851;51.354;7.744;2023-04-24T05:27:55;12.70;;;8.57;;
78555;SDS011;67851;51.354;7.744;2023-04-24T05:30:21;17.00;;;9.50;;
78555;SDS011;67851;51.354;7.744;2023-04-24T05:32:48;14.48;;;9.63;;
78555;SDS011;67851;51.354;7.744;2023-04-24T05:35:14;15.57;;;9.07;;
78555;SDS011;67851;51.354;7.744;2023-04-24T05:37:39;12.70;;;8.63;;
78555;SDS011;67851;51.354;7.744;2023-04-24T05:40:06;16.98;;;9.63;;
78555;SDS011;67851;51.354;7.744;2023-04-24T05:42:32;16.67;;;8.90;;
78555;SDS011;67851;51.354;7.744;2023-04-24T05:44:57;14.30;;;9.05;;
78555;SDS011;67851;51.354;7.744;2023-04-24T05:47:23;15.32;;;8.52;;
78555;SDS011;67851;51.354;7.744;2023-04-24T05:49:50;12.65;;;8.60;;
78555;SDS011;67851;51.354;7.744;2023-04-24T05:52:16;11.38;;;7.82;;
78555;SDS011;67851;51.354;7.744;2023-04-24T05:54:42;10.80;;;7.65;;
78555;SDS011;67851;51.354;7.744;2023-04-24T05:57:10;13.18;;;8.30;;
78555;SDS011;67851;51.354;7.744;2023-04-24T05:59:56;13.20;;;7.38;;
78555;SDS011;67851;51.354;7.744;2023-04-24T06:02:22;12.85;;;7.47;;
78555;SDS011;67851;51.354;7.744;2023-04-24T06:04:48;10.77;;;7.25;;
78555;SDS011;67851;51.354;7.744;2023-04-24T06:07:13;12.60;;;7.40;;
78555;SDS011;67851;51.354;7.744;2023-04-24T06:09:41;9.77;;;7.32;;
78555;SDS011;67851;51.354;7.744;2023-04-24T06:12:07;9.40;;;7.57;;
78555;SDS011;67851;51.354;7.744;2023-04-24T06:14:48;9.45;;;7.07;;
78555;SDS011;67851;51.354;7.744;2023-04-24T06:17:18;12.73;;;7.60;;
78555;SDS011;67851;51.354;7.744;2023-04-24T06:19:45;12.65;;;7.18;;
78555;SDS011;67851;51.354;7.744;2023-04-24T06:22:10;13.32;;;7.18;;
78555;SDS011;67851;51.354;7.744;2023-04-24T06:24:36;12.55;;;7.85;;
78555;SDS011;67851;51.354;7.744;2023-04-24T06:27:02;9.40;;;6.68;;
78555;SDS011;67851;51.354;7.744;2023-04-24T06:29:27;13.27;;;6.78;;
78555;SDS011;67851;51.354;7.744;2023-04-24T06:31:55;10.23;;;7.45;;
78555;SDS011;67851;51.354;7.744;2023-04-24T06:34:21;8.30;;;6.10;;
78555;SDS011;67851;51.354;7.744;2023-04-24T06:36:46;9.75;;;7.25;;
78555;SDS011;67851;51.354;7.744;2023-04-24T06:39:12;11.60;;;7.43;;
78555;SDS011;67851;51.354;7.744;2023-04-24T06:41:37;8.85;;;6.10;;
78555;SDS011;67851;51.354;7.744;2023-04-24T06:44:05;10.32;;;6.88;;
78555;SDS011;67851;51.354;7.744;2023-04-24T06:46:30;10.95;;;6.80;;
78555;SDS011;67851;51.354;7.744;2023-04-24T06:48:56;7.95;;;5.63;;
78555;SDS011;67851;51.354;7.744;2023-04-24T06:51:25;8.07;;;6.50;;
78555;SDS011;67851;51.354;7.744;2023-04-24T06:53:52;9.98;;;6.88;;
78555;SDS011;67851;51.354;7.744;2023-04-24T06:56:18;14.07;;;7.25;;
78555;SDS011;67851;51.354;7.744;2023-04-24T06:58:44;10.75;;;6.35;;
78555;SDS011;67851;51.354;7.744;2023-04-24T07:01:10;12.55;;;7.38;;
78555;SDS011;67851;51.354;7.744;2023-04-24T07:03:36;8.55;;;5.30;;
78555;SDS011;67851;51.354;7.744;2023-04-24T07:06:01;10.68;;;7.70;;
78555;SDS011;67851;51.354;7.744;2023-04-24T07:08:29;12.52;;;8.18;;
78555;SDS011;67851;51.354;7.744;2023-04-24T07:10:56;10.77;;;7.25;;
78555;SDS011;67851;51.354;7.744;2023-04-24T07:13:22;10.63;;;7.50;;
78555;SDS011;67851;51.354;7.744;2023-04-24T07:15:48;11.75;;;7.38;;
78555;SDS011;67851;51.354;7.744;2023-04-24T07:18:16;11.43;;;6.68;;
78555;SDS011;67851;51.354;7.744;2023-04-24T07:20:42;10.75;;;7.75;;
78555;SDS011;67851;51.354;7.744;2023-04-24T07:23:07;12.45;;;8.85;;
78555;SDS011;67851;51.354;7.744;2023-04-24T07:25:33;8.82;;;6.18;;
78555;SDS011;67851;51.354;7.744;2023-04-24T07:27:58;13.15;;;8.55;;
78555;SDS011;67851;51.354;7.744;2023-04-24T07:30:24;13.88;;;7.63;;
78555;SDS011;67851;51.354;7.744;2023-04-24T07:32:50;9.15;;;5.93;;
78555;SDS011;67851;51.354;7.744;2023-04-24T07:35:16;12.18;;;8.45;;
78555;SDS011;67851;51.354;7.744;2023-04-24T07:37:41;10.80;;;5.97;;
78555;SDS011;67851;51.354;7.744;2023-04-24T07:40:11;9.68;;;7.28;;
78555;SDS011;67851;51.354;7.744;2023-04-24T07:42:37;11.48;;;7.18;;
78555;SDS011;67851;51.354;7.744;2023-04-24T07:45:03;9.18;;;6.75;;
78555;SDS011;67851;51.354;7.744;2023-04-24T07:47:29;8.50;;;6.22;;
78555;SDS011;67851;51.354;7.744;2023-04-24T07:49:55;7.13;;;5.65;;
78555;SDS011;67851;51.354;7.744;2023-04-24T07:52:20;8.75;;;5.32;;
78555;SDS011;67851;51.354;7.744;2023-04-24T07:54:46;6.03;;;3.80;;
78555;SDS011;67851;51.354;7.744;2023-04-24T07:57:11;6.55;;;3.80;;
78555;SDS011;67851;51.354;7.744;2023-04-24T07:59:40;5.72;;;4.18;;
78555;SDS011;67851;51.354;7.744;2023-04-24T08:02:05;4.60;;;3.67;;
78555;SDS011;67851;51.354;7.744;2023-04-24T08:04:31;5.30;;;2.97;;
78555;SDS011;67851;51.354;7.744;2023-04-24T08:06:57;4.78;;;3.85;;
78555;SDS011;67851;51.354;7.744;2023-04-24T08:09:22;3.60;;;2.17;;
78555;SDS011;67851;51.354;7.744;2023-04-24T08:11:48;3.95;;;3.33;;
78555;SDS011;67851;51.354;7.744;2023-04-24T08:14:14;4.88;;;2.15;;
78555;SDS011;67851;51.354;7.744;2023-04-24T08:16:40;1.60;;;1.20;;
78555;SDS011;67851;51.354;7.744;2023-04-24T08:19:05;2.85;;;1.50;;
78555;SDS011;67851;51.354;7.744;2023-04-24T08:21:31;1.92;;;1.63;;
78555;SDS011;67851;51.354;7.744;2023-04-24T08:23:57;1.60;;;1.20;;
78555;SDS011;67851;51.354;7.744;2023-04-24T08:26:23;1.73;;;1.30;;
78555;SDS011;67851;51.354;7.744;2023-04-24T08:28:48;2.20;;;1.30;;
78555;SDS011;67851;51.354;7.744;2023-04-24T08:31:14;2.40;;;1.10;;
78555;SDS011;67851;51.354;7.744;2023-04-24T08:33:40;0.70;;;0.70;;
78555;SDS011;67851;51.354;7.744;2023-04-24T08:36:06;0.95;;;0.85;;
78555;SDS011;67851;51.354;7.744;2023-04-24T08:38:32;0.70;;;0.68;;
78555;SDS011;67851;51.354;7.744;2023-04-24T08:40:59;0.82;;;0.55;;
78555;SDS011;67851;51.354;7.744;2023-04-24T08:43:25;1.23;;;0.52;;
78555;SDS011;67851;51.354;7.744;2023-04-24T08:45:51;0.57;;;0.57;;
78555;SDS011;67851;51.354;7.744;2023-04-24T08:48:17;0.55;;;0.55;;
78555;SDS011;67851;51.354;7.744;2023-04-24T08:50:43;0.70;;;0.60;;
78555;SDS011;67851;51.354;7.744;2023-04-24T08:53:10;0.70;;;0.70;;
78555;SDS011;67851;51.354;7.744;2023-04-24T08:55:37;1.75;;;0.55;;
78555;SDS011;67851;51.354;7.744;2023-04-24T08:58:02;1.10;;;0.73;;
78555;SDS011;67851;51.354;7.744;2023-04-24T09:00:29;0.80;;;0.68;;
78555;SDS011;67851;51.354;7.744;2023-04-24T09:02:55;1.10;;;0.73;;
78555;SDS011;67851;51.354;7.744;2023-04-24T09:05:21;0.50;;;0.50;;
78555;SDS011;67851;51.354;7.744;2023-04-24T09:07:55;0.45;;;0.45;;
78555;SDS011;67851;51.354;7.744;2023-04-24T09:10:22;0.60;;;0.50;;
78555;SDS011;67851;51.354;7.744;2023-04-24T09:12:49;0.40;;;0.40;;
78555;SDS011;67851;51.354;7.744;2023-04-24T09:15:15;0.30;;;0.30;;
78555;SDS011;67851;51.354;7.744;2023-04-24T09:17:41;0.50;;;0.40;;
78555;SDS011;67851;51.354;7.744;2023-04-24T09:20:07;0.50;;;0.47;;
78555;SDS011;67851;51.354;7.744;2023-04-24T09:22:33;0.40;;;0.40;;
78555;SDS011;67851;51.354;7.744;2023-04-24T09:25:03;0.80;;;0.60;;
78555;SDS011;67851;51.354;7.744;2023-04-24T09:27:30;0.55;;;0.55;;
78555;SDS011;67851;51.354;7.744;2023-04-24T09:29:56;1.10;;;0.70;;
78555;SDS011;67851;51.354;7.744;2023-04-24T09:32:23;0.60;;;0.60;;
78555;SDS011;67851;51.354;7.744;2023-04-24T09:35:04;0.70;;;0.68;;
78555;SDS011;67851;51.354;7.744;2023-04-24T09:37:35;1.13;;;0.82;;
78555;SDS011;67851;51.354;7.744;2023-04-24T09:40:09;0.70;;;0.70;;
78555;SDS011;67851;51.354;7.744;2023-04-24T09:42:36;1.00;;;0.90;;
78555;SDS011;67851;51.354;7.744;2023-04-24T09:45:01;2.97;;;0.80;;
78555;SDS011;67851;51.354;7.744;2023-04-24T09:47:27;2.10;;;0.90;;
78555;SDS011;67851;51.354;7.744;2023-04-24T09:50:08;1.20;;;0.90;;
78555;SDS011;67851;51.354;7.744;2023-04-24T09:52:44;1.40;;;0.70;;
78555;SDS011;67851;51.354;7.744;2023-04-24T09:55:30;0.95;;;0.77;;
78555;SDS011;67851;51.354;7.744;2023-04-24T09:57:57;0.47;;;0.47;;
78555;SDS011;67851;51.354;7.744;2023-04-24T10:00:26;5.85;;;0.50;;
78555;SDS011;67851;51.354;7.744;2023-04-24T10:02:57;0.57;;;0.57;;
78555;SDS011;67851;51.354;7.744;2023-04-24T10:05:23;0.50;;;0.50;;
78555;SDS011;67851;51.354;7.744;2023-04-24T10:08:01;0.50;;;0.50;;
78555;SDS011;67851;51.354;7.744;2023-04-24T10:10:27;1.20;;;0.52;;
78555;SDS011;67851;51.354;7.744;2023-04-24T10:12:52;2.10;;;0.70;;
78555;SDS011;67851;51.354;7.744;2023-04-24T10:15:19;0.60;;;0.50;;
78555;SDS011;67851;51.354;7.744;2023-04-24T10:17:49;1.50;;;0.90;;
78555;SDS011;67851;51.354;7.744;2023-04-24T10:20:21;0.80;;;0.70;;
78555;SDS011;67851;51.354;7.744;2023-04-24T10:22:49;2.35;;;0.85;;
78555;SDS011;67851;51.354;7.744;2023-04-24T10:25:17;3.38;;;1.27;;
78555;SDS011;67851;51.354;7.744;2023-04-24T10:27:45;1.50;;;1.30;;
78555;SDS011;67851;51.354;7.744;2023-04-24T10:30:12;1.60;;;1.50;;
78555;SDS011;67851;51.354;7.744;2023-04-24T10:32:38;1.95;;;1.73;;
78555;SDS011;67851;51.354;7.744;2023-04-24T10:35:03;2.05;;;1.70;;
78555;SDS011;67851;51.354;7.744;2023-04-24T10:37:34;3.65;;;2.70;;
78555;SDS011;67851;51.354;7.744;2023-04-24T10:40:01;5.10;;;3.53;;
78555;SDS011;67851;51.354;7.744;2023-04-24T10:42:27;4.50;;;2.40;;
78555;SDS011;67851;51.354;7.744;2023-04-24T10:44:53;3.90;;;2.70;;
78555;SDS011;67851;51.354;7.744;2023-04-24T10:47:19;2.53;;;1.95;;
78555;SDS011;67851;51.354;7.744;2023-04-24T10:49:44;2.47;;;2.13;;
78555;SDS011;67851;51.354;7.744;2023-04-24T10:52:10;4.40;;;2.63;;
78555;SDS011;67851;51.354;7.744;2023-04-24T10:59:43;5.80;;;3.40;;
78555;SDS011;67851;51.354;7.744;2023-04-24T11:02:09;5.72;;;3.10;;
78555;SDS011;67851;51.354;7.744;2023-04-24T11:04:35;6.75;;;3.22;;
78555;SDS011;67851;51.354;7.744;2023-04-24T11:07:04;2.63;;;2.35;;
78555;SDS011;67851;51.354;7.744;2023-04-24T11:09:30;3.78;;;2.50;;
78555;SDS011;67851;51.354;7.744;2023-04-24T11:12:07;4.07;;;2.70;;
78555;SDS011;67851;51.354;7.744;2023-04-24T11:17:34;4.03;;;3.15;;
78555;SDS011;67851;51.354;7.744;2023-04-24T11:22:30;4.28;;;2.90;;
78555;SDS011;67851;51.354;7.744;2023-04-24T11:24:59;6.05;;;3.35;;
78555;SDS011;67851;51.354;7.744;2023-04-24T11:27:44;7.72;;;3.83;;
78555;SDS011;67851;51.354;7.744;2023-04-24T11:30:11;8.10;;;3.47;;
78555;SDS011;67851;51.354;7.744;2023-04-24T11:35:07;7.25;;;4.25;;
78555;SDS011;67851;51.354;7.744;2023-04-24T11:37:34;7.88;;;5.40;;
78555;SDS011;67851;51.354;7.744;2023-04-24T11:40:01;9.00;;;3.33;;
78555;SDS011;67851;51.354;7.744;2023-04-24T11:42:27;7.13;;;4.47;;
78555;SDS011;67851;51.354;7.744;2023-04-24T11:44:53;11.23;;;5.07;;
78555;SDS011;67851;51.354;7.744;2023-04-24T11:47:27;9.40;;;4.28;;
78555;SDS011;67851;51.354;7.744;2023-04-24T11:49:54;8.88;;;4.35;;
78555;SDS011;67851;51.354;7.744;2023-04-24T11:52:19;9.90;;;5.28;;
78555;SDS011;67851;51.354;7.744;2023-04-24T11:54:48;15.25;;;6.45;;
78555;SDS011;67851;51.354;7.744;2023-04-24T11:57:15;8.65;;;5.10;;
78555;SDS011;67851;51.354;7.744;2023-04-24T11:59:41;10.50;;;4.88;;
78555;SDS011;67851;51.354;7.744;2023-04-24T12:02:06;11.25;;;5.15;;
78555;SDS011;67851;51.354;7.744;2023-04-24T12:04:39;15.73;;;5.75;;
78555;SDS011;67851;51.354;7.744;2023-04-24T12:07:06;19.50;;;6.30;;
78555;SDS011;67851;51.354;7.744;2023-04-24T12:12:25;19.73;;;6.93;;
78555;SDS011;67851;51.354;7.744;2023-04-24T12:14:52;15.07;;;7.68;;
78555;SDS011;67851;51.354;7.744;2023-04-24T12:17:29;17.20;;;8.38;;
78555;SDS011;67851;51.354;7.744;2023-04-24T12:22:25;18.90;;;8.15;;
78555;SDS011;67851;51.354;7.744;2023-04-24T12:24:58;22.20;;;10.60;;
78555;SDS011;67851;51.354;7.744;2023-04-24T12:27:24;22.98;;;12.40;;
78555;SDS011;67851;51.354;7.744;2023-04-24T12:29:55;21.20;;;10.13;;
78555;SDS011;67851;51.354;7.744;2023-04-24T12:32:21;16.67;;;8.25;;
78555;SDS011;67851;51.354;7.744;2023-04-24T12:34:47;22.52;;;8.82;;
78555;SDS011;67851;51.354;7.744;2023-04-24T12:37:12;15.70;;;7.95;;
78555;SDS011;67851;51.354;7.744;2023-04-24T12:39:38;16.20;;;7.07;;
78555;SDS011;67851;51.354;7.744;2023-04-24T12:42:03;16.92;;;6.85;;
78555;SDS011;67851;51.354;7.744;2023-04-24T12:44:30;21.33;;;6.93;;
78555;SDS011;67851;51.354;7.744;2023-04-24T12:46:56;11.88;;;5.53;;
78555;SDS011;67851;51.354;7.744;2023-04-24T12:49:22;16.05;;;5.78;;
78555;SDS011;67851;51.354;7.744;2023-04-24T12:51:48;10.88;;;4.55;;
78555;SDS011;67851;51.354;7.744;2023-04-24T12:54:14;10.85;;;3.90;;
78555;SDS011;67851;51.354;7.744;2023-04-24T12:56:39;14.52;;;6.10;;
78555;SDS011;67851;51.354;7.744;2023-04-24T12:59:05;13.07;;;5.82;;
78555;SDS011;67851;51.354;7.744;2023-04-24T13:01:30;13.18;;;4.88;;
78555;SDS011;67851;51.354;7.744;2023-04-24T13:03:56;10.80;;;5.18;;
78555;SDS011;67851;51.354;7.744;2023-04-24T13:06:21;13.32;;;5.35;;
78555;SDS011;67851;51.354;7.744;2023-04-24T13:08:47;8.50;;;4.03;;
78555;SDS011;67851;51.354;7.744;2023-04-24T13:15:00;10.80;;;6.30;;
78555;SDS011;67851;51.354;7.744;2023-04-24T13:17:25;10.18;;;5.65;;
78555;SDS011;67851;51.354;7.744;2023-04-24T13:19:51;14.18;;;5.32;;
78555;SDS011;67851;51.354;7.744;2023-04-24T13:22:20;17.40;;;6.07;;
78555;SDS011;67851;51.354;7.744;2023-04-24T13:24:45;11.32;;;5.30;;
78555;SDS011;67851;51.354;7.744;2023-04-24T13:27:14;14.23;;;5.68;;
78555;SDS011;67851;51.354;7.744;2023-04-24T13:29:40;12.48;;;4.90;;
78555;SDS011;67851;51.354;7.744;2023-04-24T13:32:05;14.55;;;5.28;;
78555;SDS011;67851;51.354;7.744;2023-04-24T13:34:31;12.32;;;4.88;;
78555;SDS011;67851;51.354;7.744;2023-04-24T13:36:57;19.48;;;6.95;;
78555;SDS011;67851;51.354;7.744;2023-04-24T13:39:23;15.82;;;6.38;;
78555;SDS011;67851;51.354;7.744;2023-04-24T13:41:49;6.97;;;3.00;;
78555;SDS011;67851;51.354;7.744;2023-04-24T13:44:15;8.23;;;4.50;;
78555;SDS011;67851;51.354;7.744;2023-04-24T13:46:42;9.55;;;4.40;;
78555;SDS011;67851;51.354;7.744;2023-04-24T13:49:12;9.05;;;4.00;;
78555;SDS011;67851;51.354;7.744;2023-04-24T13:51:38;10.43;;;4.18;;
78555;SDS011;67851;51.354;7.744;2023-04-24T13:54:05;9.95;;;4.22;;
78555;SDS011;67851;51.354;7.744;2023-04-24T13:56:31;13.68;;;4.07;;
78555;SDS011;67851;51.354;7.744;2023-04-24T13:58:56;14.45;;;4.70;;
78555;SDS011;67851;51.354;7.744;2023-04-24T14:01:22;8.23;;;3.42;;
78555;SDS011;67851;51.354;7.744;2023-04-24T14:03:51;9.30;;;3.78;;
78555;SDS011;67851;51.354;7.744;2023-04-24T14:06:20;8.02;;;3.35;;
78555;SDS011;67851;51.354;7.744;2023-04-24T14:08:46;11.90;;;3.55;;
78555;SDS011;67851;51.354;7.744;2023-04-24T14:11:12;12.18;;;3.28;;
78555;SDS011;67851;51.354;7.744;2023-04-24T14:13:38;10.57;;;4.40;;
78555;SDS011;67851;51.354;7.744;2023-04-24T14:16:07;6.57;;;2.90;;
78555;SDS011;67851;51.354;7.744;2023-04-24T14:18:33;7.50;;;2.95;;
78555;SDS011;67851;51.354;7.744;2023-04-24T14:20:59;5.25;;;2.50;;
78555;SDS011;67851;51.354;7.744;2023-04-24T14:23:26;9.07;;;2.58;;
78555;SDS011;67851;51.354;7.744;2023-04-24T14:25:51;7.78;;;3.47;;
78555;SDS011;67851;51.354;7.744;2023-04-24T14:28:17;10.68;;;2.88;;
78555;SDS011;67851;51.354;7.744;2023-04-24T14:30:44;7.63;;;2.72;;
78555;SDS011;67851;51.354;7.744;2023-04-24T14:33:09;10.75;;;2.47;;
78555;SDS011;67851;51.354;7.744;2023-04-24T14:35:35;6.93;;;2.20;;
78555;SDS011;67851;51.354;7.744;2023-04-24T14:38:01;13.10;;;2.92;;
78555;SDS011;67851;51.354;7.744;2023-04-24T14:40:27;8.32;;;2.53;;
78555;SDS011;67851;51.354;7.744;2023-04-24T14:42:52;4.72;;;2.20;;
78555;SDS011;67851;51.354;7.744;2023-04-24T14:45:18;5.93;;;2.40;;
78555;SDS011;67851;51.354;7.744;2023-04-24T14:47:44;5.18;;;2.40;;
78555;SDS011;67851;51.354;7.744;2023-04-24T14:50:10;5.20;;;2.08;;
78555;SDS011;67851;51.354;7.744;2023-04-24T14:52:37;5.57;;;2.17;;
78555;SDS011;67851;51.354;7.744;2023-04-24T14:55:03;6.07;;;1.77;;
78555;SDS011;67851;51.354;7.744;2023-04-24T14:57:29;5.13;;;1.98;;
78555;SDS011;67851;51.354;7.744;2023-04-24T14:59:55;6.05;;;1.90;;
78555;SDS011;67851;51.354;7.744;2023-04-24T15:02:21;13.85;;;5.30;;
78555;SDS011;67851;51.354;7.744;2023-04-24T15:04:46;4.53;;;2.25;;
78555;SDS011;67851;51.354;7.744;2023-04-24T15:07:12;10.35;;;2.00;;